Terminal Aerodrome Forecast
Issued by NWS

Home | Current Version | Previous Version | Text Only | Print | Product List | Glossary On
Versions: 1 2 3 4 5 6 7 8 9 10 11 12
000
FTUS46 KMTR 291100
TAFMRY
TAF
KMRY 291127Z 2912/3012 11004KT P6SM FEW200
     FM292100 31006KT P6SM SCT200
     FM300200 12003KT P6SM FEW200
     FM300900 12004KT P6SM BKN009=

USA.gov is the U.S. government's official web portal to all federal, state and local government web resources and services.